sensor_id;sensor_type;location;lat;lon;timestamp;P1;durP1;ratioP1;P2;durP2;ratioP2
19664;SDS011;9980;51.020;7.772;2022-12-18T00:03:49;16.93;;;15.67;;
19664;SDS011;9980;51.020;7.772;2022-12-18T00:06:18;16.03;;;14.90;;
19664;SDS011;9980;51.020;7.772;2022-12-18T00:08:45;15.97;;;14.97;;
19664;SDS011;9980;51.020;7.772;2022-12-18T00:11:16;16.67;;;15.47;;
19664;SDS011;9980;51.020;7.772;2022-12-18T00:13:46;17.37;;;15.97;;
19664;SDS011;9980;51.020;7.772;2022-12-18T00:16:14;17.20;;;15.60;;
19664;SDS011;9980;51.020;7.772;2022-12-18T00:18:45;16.67;;;15.43;;
19664;SDS011;9980;51.020;7.772;2022-12-18T00:21:17;17.70;;;16.40;;
19664;SDS011;9980;51.020;7.772;2022-12-18T00:23:45;17.10;;;15.57;;
19664;SDS011;9980;51.020;7.772;2022-12-18T00:26:14;16.40;;;15.30;;
19664;SDS011;9980;51.020;7.772;2022-12-18T00:28:48;16.83;;;15.67;;
19664;SDS011;9980;51.020;7.772;2022-12-18T00:31:17;17.10;;;15.80;;
19664;SDS011;9980;51.020;7.772;2022-12-18T00:33:46;16.77;;;15.47;;
19664;SDS011;9980;51.020;7.772;2022-12-18T00:36:16;16.30;;;15.10;;
19664;SDS011;9980;51.020;7.772;2022-12-18T00:38:49;16.90;;;15.67;;
19664;SDS011;9980;51.020;7.772;2022-12-18T00:41:17;16.50;;;15.20;;
19664;SDS011;9980;51.020;7.772;2022-12-18T00:44:04;16.83;;;15.67;;
19664;SDS011;9980;51.020;7.772;2022-12-18T00:46:32;17.87;;;16.47;;
19664;SDS011;9980;51.020;7.772;2022-12-18T00:48:59;17.50;;;16.20;;
19664;SDS011;9980;51.020;7.772;2022-12-18T00:51:26;17.60;;;16.40;;
19664;SDS011;9980;51.020;7.772;2022-12-18T00:53:52;18.27;;;16.87;;
19664;SDS011;9980;51.020;7.772;2022-12-18T00:56:19;17.60;;;16.23;;
19664;SDS011;9980;51.020;7.772;2022-12-18T00:58:48;18.43;;;16.80;;
19664;SDS011;9980;51.020;7.772;2022-12-18T01:01:15;17.83;;;16.63;;
19664;SDS011;9980;51.020;7.772;2022-12-18T01:03:42;17.53;;;16.23;;
19664;SDS011;9980;51.020;7.772;2022-12-18T01:06:10;17.93;;;16.53;;
19664;SDS011;9980;51.020;7.772;2022-12-18T01:08:39;17.43;;;16.10;;
19664;SDS011;9980;51.020;7.772;2022-12-18T01:11:13;18.30;;;17.00;;
19664;SDS011;9980;51.020;7.772;2022-12-18T01:13:42;16.33;;;15.23;;
19664;SDS011;9980;51.020;7.772;2022-12-18T01:16:13;18.10;;;16.70;;
19664;SDS011;9980;51.020;7.772;2022-12-18T01:18:42;17.03;;;15.70;;
19664;SDS011;9980;51.020;7.772;2022-12-18T01:21:09;17.30;;;16.10;;
19664;SDS011;9980;51.020;7.772;2022-12-18T01:23:38;18.37;;;16.93;;
19664;SDS011;9980;51.020;7.772;2022-12-18T01:26:09;17.23;;;16.03;;
19664;SDS011;9980;51.020;7.772;2022-12-18T01:28:38;18.60;;;17.20;;
19664;SDS011;9980;51.020;7.772;2022-12-18T01:31:17;17.03;;;15.73;;
19664;SDS011;9980;51.020;7.772;2022-12-18T01:33:53;17.07;;;15.87;;
19664;SDS011;9980;51.020;7.772;2022-12-18T01:36:25;17.57;;;16.30;;
19664;SDS011;9980;51.020;7.772;2022-12-18T01:38:54;18.27;;;16.77;;
19664;SDS011;9980;51.020;7.772;2022-12-18T01:41:23;18.30;;;16.77;;
19664;SDS011;9980;51.020;7.772;2022-12-18T01:47:52;17.30;;;16.10;;
19664;SDS011;9980;51.020;7.772;2022-12-18T01:53:06;17.13;;;15.73;;
19664;SDS011;9980;51.020;7.772;2022-12-18T01:55:50;19.73;;;17.80;;
19664;SDS011;9980;51.020;7.772;2022-12-18T01:58:35;18.70;;;17.20;;
19664;SDS011;9980;51.020;7.772;2022-12-18T02:01:15;17.97;;;16.67;;
19664;SDS011;9980;51.020;7.772;2022-12-18T02:03:42;18.07;;;16.70;;
19664;SDS011;9980;51.020;7.772;2022-12-18T02:06:12;17.97;;;16.50;;
19664;SDS011;9980;51.020;7.772;2022-12-18T02:09:31;17.60;;;16.30;;
19664;SDS011;9980;51.020;7.772;2022-12-18T02:11:45;17.50;;;16.27;;
19664;SDS011;9980;51.020;7.772;2022-12-18T02:17:15;19.00;;;17.63;;
19664;SDS011;9980;51.020;7.772;2022-12-18T02:25:52;18.77;;;17.17;;
19664;SDS011;9980;51.020;7.772;2022-12-18T02:29:26;18.43;;;16.93;;
19664;SDS011;9980;51.020;7.772;2022-12-18T02:32:00;18.80;;;17.30;;
19664;SDS011;9980;51.020;7.772;2022-12-18T02:34:33;19.30;;;17.90;;
19664;SDS011;9980;51.020;7.772;2022-12-18T02:37:11;18.00;;;16.60;;
19664;SDS011;9980;51.020;7.772;2022-12-18T02:39:42;18.10;;;16.70;;
19664;SDS011;9980;51.020;7.772;2022-12-18T02:42:12;19.40;;;17.80;;
19664;SDS011;9980;51.020;7.772;2022-12-18T02:44:43;18.07;;;16.77;;
19664;SDS011;9980;51.020;7.772;2022-12-18T02:47:19;19.97;;;18.27;;
19664;SDS011;9980;51.020;7.772;2022-12-18T02:52:57;18.90;;;17.50;;
19664;SDS011;9980;51.020;7.772;2022-12-18T02:55:58;20.37;;;18.50;;
19664;SDS011;9980;51.020;7.772;2022-12-18T02:58:54;18.50;;;16.97;;
19664;SDS011;9980;51.020;7.772;2022-12-18T03:04:25;20.10;;;18.30;;
19664;SDS011;9980;51.020;7.772;2022-12-18T03:07:05;20.23;;;18.53;;
19664;SDS011;9980;51.020;7.772;2022-12-18T03:09:42;20.37;;;18.70;;
19664;SDS011;9980;51.020;7.772;2022-12-18T03:12:16;20.93;;;19.07;;
19664;SDS011;9980;51.020;7.772;2022-12-18T03:15:08;19.37;;;17.67;;
19664;SDS011;9980;51.020;7.772;2022-12-18T03:17:46;21.47;;;19.67;;
19664;SDS011;9980;51.020;7.772;2022-12-18T03:20:25;20.83;;;19.00;;
19664;SDS011;9980;51.020;7.772;2022-12-18T03:22:57;20.27;;;18.67;;
19664;SDS011;9980;51.020;7.772;2022-12-18T03:25:34;19.90;;;18.30;;
19664;SDS011;9980;51.020;7.772;2022-12-18T03:28:09;20.67;;;19.00;;
19664;SDS011;9980;51.020;7.772;2022-12-18T03:30:42;20.50;;;18.80;;
19664;SDS011;9980;51.020;7.772;2022-12-18T03:33:14;19.77;;;18.13;;
19664;SDS011;9980;51.020;7.772;2022-12-18T03:35:50;18.30;;;17.00;;
19664;SDS011;9980;51.020;7.772;2022-12-18T03:38:17;19.00;;;17.30;;
19664;SDS011;9980;51.020;7.772;2022-12-18T03:49:34;18.70;;;17.33;;
19664;SDS011;9980;51.020;7.772;2022-12-18T03:52:50;19.40;;;17.83;;
19664;SDS011;9980;51.020;7.772;2022-12-18T03:55:27;19.27;;;17.70;;
19664;SDS011;9980;51.020;7.772;2022-12-18T03:58:02;19.13;;;17.60;;
19664;SDS011;9980;51.020;7.772;2022-12-18T04:00:41;19.83;;;18.33;;
19664;SDS011;9980;51.020;7.772;2022-12-18T04:03:10;20.00;;;18.43;;
19664;SDS011;9980;51.020;7.772;2022-12-18T04:05:43;18.73;;;17.10;;
19664;SDS011;9980;51.020;7.772;2022-12-18T04:08:13;18.63;;;17.33;;
19664;SDS011;9980;51.020;7.772;2022-12-18T04:10:48;18.30;;;16.77;;
19664;SDS011;9980;51.020;7.772;2022-12-18T04:13:21;19.47;;;17.93;;
19664;SDS011;9980;51.020;7.772;2022-12-18T04:16:01;19.00;;;17.30;;
19664;SDS011;9980;51.020;7.772;2022-12-18T04:18:27;19.73;;;18.23;;
19664;SDS011;9980;51.020;7.772;2022-12-18T04:20:54;18.57;;;16.80;;
19664;SDS011;9980;51.020;7.772;2022-12-18T04:23:21;18.60;;;17.20;;
19664;SDS011;9980;51.020;7.772;2022-12-18T04:25:48;18.60;;;17.10;;
19664;SDS011;9980;51.020;7.772;2022-12-18T04:28:22;17.87;;;16.60;;
19664;SDS011;9980;51.020;7.772;2022-12-18T04:30:48;19.77;;;18.37;;
19664;SDS011;9980;51.020;7.772;2022-12-18T04:33:15;17.73;;;16.43;;
19664;SDS011;9980;51.020;7.772;2022-12-18T04:35:41;18.00;;;16.70;;
19664;SDS011;9980;51.020;7.772;2022-12-18T04:38:08;19.23;;;17.83;;
19664;SDS011;9980;51.020;7.772;2022-12-18T04:40:35;18.03;;;16.77;;
19664;SDS011;9980;51.020;7.772;2022-12-18T04:43:08;19.70;;;18.07;;
19664;SDS011;9980;51.020;7.772;2022-12-18T04:45:34;18.93;;;17.43;;
19664;SDS011;9980;51.020;7.772;2022-12-18T04:48:01;17.83;;;16.43;;
19664;SDS011;9980;51.020;7.772;2022-12-18T04:50:28;18.93;;;17.47;;
19664;SDS011;9980;51.020;7.772;2022-12-18T04:52:55;19.67;;;18.30;;
19664;SDS011;9980;51.020;7.772;2022-12-18T04:55:22;17.67;;;16.27;;
19664;SDS011;9980;51.020;7.772;2022-12-18T04:57:48;19.43;;;17.73;;
19664;SDS011;9980;51.020;7.772;2022-12-18T05:00:14;19.00;;;17.70;;
19664;SDS011;9980;51.020;7.772;2022-12-18T05:02:41;19.43;;;17.83;;
19664;SDS011;9980;51.020;7.772;2022-12-18T05:05:07;19.60;;;18.10;;
19664;SDS011;9980;51.020;7.772;2022-12-18T05:07:35;21.53;;;17.60;;
19664;SDS011;9980;51.020;7.772;2022-12-18T05:10:01;18.87;;;17.37;;
19664;SDS011;9980;51.020;7.772;2022-12-18T05:12:28;18.37;;;17.03;;
19664;SDS011;9980;51.020;7.772;2022-12-18T05:14:56;19.83;;;18.37;;
19664;SDS011;9980;51.020;7.772;2022-12-18T05:17:22;19.93;;;18.50;;
19664;SDS011;9980;51.020;7.772;2022-12-18T05:19:48;19.50;;;18.10;;
19664;SDS011;9980;51.020;7.772;2022-12-18T05:22:14;18.77;;;17.47;;
19664;SDS011;9980;51.020;7.772;2022-12-18T05:24:40;20.03;;;18.43;;
19664;SDS011;9980;51.020;7.772;2022-12-18T05:27:07;19.87;;;18.30;;
19664;SDS011;9980;51.020;7.772;2022-12-18T05:29:33;18.53;;;17.13;;
19664;SDS011;9980;51.020;7.772;2022-12-18T05:31:59;18.77;;;17.47;;
19664;SDS011;9980;51.020;7.772;2022-12-18T05:34:25;18.47;;;17.27;;
19664;SDS011;9980;51.020;7.772;2022-12-18T05:36:51;19.13;;;17.80;;
19664;SDS011;9980;51.020;7.772;2022-12-18T05:39:17;19.33;;;17.93;;
19664;SDS011;9980;51.020;7.772;2022-12-18T05:41:43;19.07;;;17.57;;
19664;SDS011;9980;51.020;7.772;2022-12-18T05:44:09;18.53;;;17.03;;
19664;SDS011;9980;51.020;7.772;2022-12-18T05:46:35;19.07;;;17.67;;
19664;SDS011;9980;51.020;7.772;2022-12-18T05:49:02;19.30;;;17.77;;
19664;SDS011;9980;51.020;7.772;2022-12-18T05:51:28;18.90;;;17.40;;
19664;SDS011;9980;51.020;7.772;2022-12-18T05:53:54;17.77;;;16.63;;
19664;SDS011;9980;51.020;7.772;2022-12-18T05:56:21;19.27;;;17.67;;
19664;SDS011;9980;51.020;7.772;2022-12-18T05:58:51;18.33;;;17.03;;
19664;SDS011;9980;51.020;7.772;2022-12-18T06:01:20;18.93;;;17.47;;
19664;SDS011;9980;51.020;7.772;2022-12-18T06:03:50;18.97;;;17.57;;
19664;SDS011;9980;51.020;7.772;2022-12-18T06:06:17;18.23;;;16.63;;
19664;SDS011;9980;51.020;7.772;2022-12-18T06:08:45;18.40;;;17.00;;
19664;SDS011;9980;51.020;7.772;2022-12-18T06:11:12;18.70;;;17.27;;
19664;SDS011;9980;51.020;7.772;2022-12-18T06:13:41;17.77;;;16.37;;
19664;SDS011;9980;51.020;7.772;2022-12-18T06:16:08;18.53;;;17.10;;
19664;SDS011;9980;51.020;7.772;2022-12-18T06:18:34;18.60;;;16.97;;
19664;SDS011;9980;51.020;7.772;2022-12-18T06:21:03;18.03;;;16.53;;
19664;SDS011;9980;51.020;7.772;2022-12-18T06:23:29;18.17;;;16.77;;
19664;SDS011;9980;51.020;7.772;2022-12-18T06:25:55;17.97;;;16.53;;
19664;SDS011;9980;51.020;7.772;2022-12-18T06:28:22;18.20;;;16.60;;
19664;SDS011;9980;51.020;7.772;2022-12-18T06:30:48;18.33;;;16.83;;
19664;SDS011;9980;51.020;7.772;2022-12-18T06:33:15;17.73;;;16.23;;
19664;SDS011;9980;51.020;7.772;2022-12-18T06:35:42;16.70;;;15.30;;
19664;SDS011;9980;51.020;7.772;2022-12-18T06:38:08;16.63;;;15.10;;
19664;SDS011;9980;51.020;7.772;2022-12-18T06:40:35;16.10;;;14.83;;
19664;SDS011;9980;51.020;7.772;2022-12-18T06:43:04;16.20;;;14.80;;
19664;SDS011;9980;51.020;7.772;2022-12-18T06:45:31;16.50;;;15.07;;
19664;SDS011;9980;51.020;7.772;2022-12-18T06:47:57;15.63;;;14.33;;
19664;SDS011;9980;51.020;7.772;2022-12-18T06:50:24;15.57;;;14.33;;
19664;SDS011;9980;51.020;7.772;2022-12-18T06:52:50;15.47;;;14.13;;
19664;SDS011;9980;51.020;7.772;2022-12-18T06:55:16;15.83;;;14.53;;
19664;SDS011;9980;51.020;7.772;2022-12-18T06:57:43;15.20;;;13.83;;
19664;SDS011;9980;51.020;7.772;2022-12-18T07:00:09;15.00;;;13.80;;
19664;SDS011;9980;51.020;7.772;2022-12-18T07:02:36;14.90;;;13.67;;
19664;SDS011;9980;51.020;7.772;2022-12-18T07:05:02;14.03;;;12.83;;
19664;SDS011;9980;51.020;7.772;2022-12-18T07:07:35;13.67;;;12.47;;
19664;SDS011;9980;51.020;7.772;2022-12-18T07:10:02;13.97;;;12.90;;
19664;SDS011;9980;51.020;7.772;2022-12-18T07:12:28;13.50;;;12.27;;
19664;SDS011;9980;51.020;7.772;2022-12-18T07:14:55;13.50;;;12.40;;
19664;SDS011;9980;51.020;7.772;2022-12-18T07:17:21;13.10;;;12.20;;
19664;SDS011;9980;51.020;7.772;2022-12-18T07:19:47;14.30;;;12.90;;
19664;SDS011;9980;51.020;7.772;2022-12-18T07:22:13;13.63;;;12.50;;
19664;SDS011;9980;51.020;7.772;2022-12-18T07:24:39;13.70;;;12.77;;
19664;SDS011;9980;51.020;7.772;2022-12-18T07:27:05;13.17;;;12.17;;
19664;SDS011;9980;51.020;7.772;2022-12-18T07:29:33;14.37;;;13.27;;
19664;SDS011;9980;51.020;7.772;2022-12-18T07:31:59;13.40;;;12.40;;
19664;SDS011;9980;51.020;7.772;2022-12-18T07:34:25;13.67;;;12.57;;
19664;SDS011;9980;51.020;7.772;2022-12-18T07:36:51;14.13;;;13.03;;
19664;SDS011;9980;51.020;7.772;2022-12-18T07:39:17;15.50;;;14.20;;
19664;SDS011;9980;51.020;7.772;2022-12-18T07:41:43;15.27;;;13.97;;
19664;SDS011;9980;51.020;7.772;2022-12-18T07:44:31;16.33;;;14.93;;
19664;SDS011;9980;51.020;7.772;2022-12-18T07:46:57;14.97;;;13.73;;
19664;SDS011;9980;51.020;7.772;2022-12-18T07:49:23;14.77;;;13.57;;
19664;SDS011;9980;51.020;7.772;2022-12-18T07:51:50;15.50;;;13.90;;
19664;SDS011;9980;51.020;7.772;2022-12-18T07:54:16;15.80;;;14.30;;
19664;SDS011;9980;51.020;7.772;2022-12-18T07:56:42;15.07;;;13.67;;
19664;SDS011;9980;51.020;7.772;2022-12-18T07:59:08;14.03;;;12.80;;
19664;SDS011;9980;51.020;7.772;2022-12-18T08:01:34;14.40;;;13.00;;
19664;SDS011;9980;51.020;7.772;2022-12-18T08:04:01;13.63;;;12.53;;
19664;SDS011;9980;51.020;7.772;2022-12-18T08:06:27;13.73;;;12.53;;
19664;SDS011;9980;51.020;7.772;2022-12-18T08:08:53;13.77;;;12.47;;
19664;SDS011;9980;51.020;7.772;2022-12-18T08:11:21;15.07;;;13.67;;
19664;SDS011;9980;51.020;7.772;2022-12-18T08:13:50;13.63;;;12.43;;
19664;SDS011;9980;51.020;7.772;2022-12-18T08:16:17;13.63;;;12.27;;
19664;SDS011;9980;51.020;7.772;2022-12-18T08:18:45;13.57;;;12.43;;
19664;SDS011;9980;51.020;7.772;2022-12-18T08:21:12;14.50;;;12.97;;
19664;SDS011;9980;51.020;7.772;2022-12-18T08:23:42;13.70;;;12.50;;
19664;SDS011;9980;51.020;7.772;2022-12-18T08:26:09;14.10;;;12.77;;
19664;SDS011;9980;51.020;7.772;2022-12-18T08:28:37;14.27;;;13.03;;
19664;SDS011;9980;51.020;7.772;2022-12-18T08:31:03;14.50;;;13.17;;
19664;SDS011;9980;51.020;7.772;2022-12-18T08:33:30;15.20;;;13.67;;
19664;SDS011;9980;51.020;7.772;2022-12-18T08:35:57;14.47;;;13.20;;
19664;SDS011;9980;51.020;7.772;2022-12-18T08:38:25;13.00;;;12.00;;
19664;SDS011;9980;51.020;7.772;2022-12-18T08:41:01;14.23;;;12.83;;
19664;SDS011;9980;51.020;7.772;2022-12-18T08:43:32;14.40;;;13.10;;
19664;SDS011;9980;51.020;7.772;2022-12-18T08:46:17;13.53;;;12.43;;
19664;SDS011;9980;51.020;7.772;2022-12-18T08:48:46;14.93;;;13.50;;
19664;SDS011;9980;51.020;7.772;2022-12-18T08:51:12;15.40;;;13.97;;
19664;SDS011;9980;51.020;7.772;2022-12-18T08:53:41;15.67;;;14.17;;
19664;SDS011;9980;51.020;7.772;2022-12-18T08:56:08;15.27;;;13.93;;
19664;SDS011;9980;51.020;7.772;2022-12-18T08:58:34;15.40;;;14.00;;
19664;SDS011;9980;51.020;7.772;2022-12-18T09:01:00;15.10;;;13.70;;
19664;SDS011;9980;51.020;7.772;2022-12-18T09:03:28;17.03;;;15.03;;
19664;SDS011;9980;51.020;7.772;2022-12-18T09:05:55;15.30;;;13.70;;
19664;SDS011;9980;51.020;7.772;2022-12-18T09:08:21;15.13;;;13.57;;
19664;SDS011;9980;51.020;7.772;2022-12-18T09:10:48;20.63;;;14.47;;
19664;SDS011;9980;51.020;7.772;2022-12-18T09:13:15;26.27;;;17.83;;
19664;SDS011;9980;51.020;7.772;2022-12-18T09:15:52;20.87;;;15.40;;
19664;SDS011;9980;51.020;7.772;2022-12-18T09:18:21;15.83;;;14.17;;
19664;SDS011;9980;51.020;7.772;2022-12-18T09:20:48;17.03;;;14.07;;
19664;SDS011;9980;51.020;7.772;2022-12-18T09:23:17;16.50;;;13.07;;
19664;SDS011;9980;51.020;7.772;2022-12-18T09:25:43;15.37;;;13.53;;
19664;SDS011;9980;51.020;7.772;2022-12-18T09:28:10;15.63;;;14.03;;
19664;SDS011;9980;51.020;7.772;2022-12-18T09:30:43;18.13;;;14.30;;
19664;SDS011;9980;51.020;7.772;2022-12-18T09:33:14;14.97;;;13.13;;
19664;SDS011;9980;51.020;7.772;2022-12-18T09:35:43;16.17;;;13.47;;
19664;SDS011;9980;51.020;7.772;2022-12-18T09:38:11;19.03;;;14.70;;
19664;SDS011;9980;51.020;7.772;2022-12-18T09:40:51;15.83;;;14.13;;
19664;SDS011;9980;51.020;7.772;2022-12-18T09:43:48;15.47;;;13.37;;
19664;SDS011;9980;51.020;7.772;2022-12-18T09:46:23;13.93;;;12.53;;
19664;SDS011;9980;51.020;7.772;2022-12-18T09:48:59;13.23;;;11.90;;
19664;SDS011;9980;51.020;7.772;2022-12-18T09:54:11;14.10;;;12.73;;
19664;SDS011;9980;51.020;7.772;2022-12-18T09:56:54;15.07;;;13.57;;
19664;SDS011;9980;51.020;7.772;2022-12-18T09:59:22;15.73;;;14.13;;
19664;SDS011;9980;51.020;7.772;2022-12-18T10:01:56;19.10;;;16.77;;
19664;SDS011;9980;51.020;7.772;2022-12-18T10:04:23;24.03;;;18.63;;
19664;SDS011;9980;51.020;7.772;2022-12-18T10:06:52;29.40;;;20.80;;
19664;SDS011;9980;51.020;7.772;2022-12-18T10:09:39;27.30;;;19.40;;
19664;SDS011;9980;51.020;7.772;2022-12-18T10:12:36;24.13;;;18.23;;
19664;SDS011;9980;51.020;7.772;2022-12-18T10:21:44;18.70;;;15.60;;
19664;SDS011;9980;51.020;7.772;2022-12-18T10:24:45;22.90;;;18.10;;
19664;SDS011;9980;51.020;7.772;2022-12-18T10:27:24;21.63;;;17.17;;
19664;SDS011;9980;51.020;7.772;2022-12-18T10:29:52;18.47;;;14.07;;
19664;SDS011;9980;51.020;7.772;2022-12-18T10:32:23;16.53;;;13.30;;
19664;SDS011;9980;51.020;7.772;2022-12-18T10:34:54;15.50;;;13.70;;
19664;SDS011;9980;51.020;7.772;2022-12-18T10:37:27;16.60;;;14.37;;
19664;SDS011;9980;51.020;7.772;2022-12-18T10:40:05;14.53;;;13.00;;
19664;SDS011;9980;51.020;7.772;2022-12-18T10:42:57;13.53;;;12.20;;
19664;SDS011;9980;51.020;7.772;2022-12-18T10:45:37;13.13;;;11.77;;
19664;SDS011;9980;51.020;7.772;2022-12-18T10:48:04;14.70;;;12.53;;
19664;SDS011;9980;51.020;7.772;2022-12-18T10:50:46;15.87;;;13.13;;
19664;SDS011;9980;51.020;7.772;2022-12-18T10:53:36;13.13;;;11.83;;
19664;SDS011;9980;51.020;7.772;2022-12-18T10:56:03;15.53;;;13.97;;
19664;SDS011;9980;51.020;7.772;2022-12-18T10:58:33;14.87;;;12.97;;
19664;SDS011;9980;51.020;7.772;2022-12-18T11:01:06;14.47;;;12.00;;
19664;SDS011;9980;51.020;7.772;2022-12-18T11:03:45;14.33;;;12.83;;
19664;SDS011;9980;51.020;7.772;2022-12-18T11:06:28;13.70;;;12.30;;
19664;SDS011;9980;51.020;7.772;2022-12-18T11:09:00;15.27;;;12.60;;
19664;SDS011;9980;51.020;7.772;2022-12-18T11:11:37;16.90;;;13.80;;
19664;SDS011;9980;51.020;7.772;2022-12-18T11:14:04;14.07;;;12.10;;
19664;SDS011;9980;51.020;7.772;2022-12-18T11:16:44;14.97;;;12.00;;
19664;SDS011;9980;51.020;7.772;2022-12-18T11:19:35;14.63;;;12.27;;
19664;SDS011;9980;51.020;7.772;2022-12-18T11:22:17;13.07;;;11.67;;
19664;SDS011;9980;51.020;7.772;2022-12-18T11:24:55;13.57;;;11.60;;
19664;SDS011;9980;51.020;7.772;2022-12-18T11:27:56;13.73;;;11.73;;
19664;SDS011;9980;51.020;7.772;2022-12-18T11:31:08;12.10;;;10.90;;
19664;SDS011;9980;51.020;7.772;2022-12-18T11:36:45;12.70;;;11.17;;
19664;SDS011;9980;51.020;7.772;2022-12-18T11:39:22;15.80;;;12.93;;
19664;SDS011;9980;51.020;7.772;2022-12-18T11:42:47;12.20;;;10.90;;
19664;SDS011;9980;51.020;7.772;2022-12-18T11:47:52;12.97;;;11.57;;
19664;SDS011;9980;51.020;7.772;2022-12-18T11:53:02;14.60;;;11.90;;
19664;SDS011;9980;51.020;7.772;2022-12-18T12:01:35;15.57;;;12.63;;
19664;SDS011;9980;51.020;7.772;2022-12-18T12:04:33;14.30;;;11.83;;
19664;SDS011;9980;51.020;7.772;2022-12-18T12:19:13;13.50;;;12.07;;
19664;SDS011;9980;51.020;7.772;2022-12-18T12:24:01;20.07;;;13.83;;
19664;SDS011;9980;51.020;7.772;2022-12-18T12:27:00;15.97;;;12.80;;
19664;SDS011;9980;51.020;7.772;2022-12-18T12:33:04;15.00;;;12.60;;
19664;SDS011;9980;51.020;7.772;2022-12-18T12:38:51;15.77;;;12.80;;
19664;SDS011;9980;51.020;7.772;2022-12-18T12:41:23;14.03;;;12.47;;
19664;SDS011;9980;51.020;7.772;2022-12-18T12:44:16;18.83;;;14.00;;
19664;SDS011;9980;51.020;7.772;2022-12-18T12:46:50;14.47;;;12.30;;
19664;SDS011;9980;51.020;7.772;2022-12-18T12:49:20;16.43;;;12.97;;
19664;SDS011;9980;51.020;7.772;2022-12-18T12:51:56;14.23;;;12.50;;
19664;SDS011;9980;51.020;7.772;2022-12-18T12:54:36;15.37;;;13.00;;
19664;SDS011;9980;51.020;7.772;2022-12-18T13:00:04;15.60;;;13.23;;
19664;SDS011;9980;51.020;7.772;2022-12-18T13:08:24;17.00;;;12.90;;
19664;SDS011;9980;51.020;7.772;2022-12-18T13:10:59;15.83;;;13.40;;
19664;SDS011;9980;51.020;7.772;2022-12-18T13:13:52;15.37;;;13.33;;
19664;SDS011;9980;51.020;7.772;2022-12-18T13:16:24;25.87;;;17.27;;
19664;SDS011;9980;51.020;7.772;2022-12-18T13:18:53;19.93;;;14.43;;
19664;SDS011;9980;51.020;7.772;2022-12-18T13:21:25;19.70;;;14.53;;
19664;SDS011;9980;51.020;7.772;2022-12-18T13:24:14;18.10;;;14.40;;
19664;SDS011;9980;51.020;7.772;2022-12-18T13:27:02;21.07;;;15.10;;
19664;SDS011;9980;51.020;7.772;2022-12-18T13:35:51;18.07;;;13.87;;
19664;SDS011;9980;51.020;7.772;2022-12-18T13:38:36;19.50;;;14.57;;
19664;SDS011;9980;51.020;7.772;2022-12-18T13:43:54;20.57;;;14.97;;
19664;SDS011;9980;51.020;7.772;2022-12-18T13:46:44;18.03;;;14.80;;
19664;SDS011;9980;51.020;7.772;2022-12-18T13:51:43;21.67;;;15.77;;
19664;SDS011;9980;51.020;7.772;2022-12-18T13:57:05;20.47;;;14.93;;
19664;SDS011;9980;51.020;7.772;2022-12-18T13:59:51;19.60;;;15.13;;
19664;SDS011;9980;51.020;7.772;2022-12-18T14:02:20;22.90;;;16.93;;
19664;SDS011;9980;51.020;7.772;2022-12-18T14:04:50;22.27;;;16.70;;
19664;SDS011;9980;51.020;7.772;2022-12-18T14:07:21;23.20;;;16.33;;
19664;SDS011;9980;51.020;7.772;2022-12-18T14:10:11;19.83;;;15.03;;
19664;SDS011;9980;51.020;7.772;2022-12-18T14:13:05;23.10;;;15.73;;
19664;SDS011;9980;51.020;7.772;2022-12-18T14:15:40;23.37;;;17.47;;
19664;SDS011;9980;51.020;7.772;2022-12-18T14:18:20;21.57;;;15.27;;
19664;SDS011;9980;51.020;7.772;2022-12-18T14:20:51;19.50;;;16.03;;
19664;SDS011;9980;51.020;7.772;2022-12-18T14:23:35;23.60;;;16.50;;
19664;SDS011;9980;51.020;7.772;2022-12-18T14:28:57;22.40;;;17.07;;
19664;SDS011;9980;51.020;7.772;2022-12-18T14:31:29;21.57;;;17.03;;
19664;SDS011;9980;51.020;7.772;2022-12-18T14:33:57;22.07;;;17.37;;
19664;SDS011;9980;51.020;7.772;2022-12-18T14:36:24;24.03;;;17.33;;
19664;SDS011;9980;51.020;7.772;2022-12-18T14:38:56;26.07;;;17.37;;
19664;SDS011;9980;51.020;7.772;2022-12-18T14:41:25;25.30;;;17.10;;
19664;SDS011;9980;51.020;7.772;2022-12-18T14:43:53;22.80;;;17.03;;
19664;SDS011;9980;51.020;7.772;2022-12-18T14:49:04;23.47;;;17.13;;
19664;SDS011;9980;51.020;7.772;2022-12-18T14:51:55;24.03;;;17.97;;
19664;SDS011;9980;51.020;7.772;2022-12-18T14:54:27;26.37;;;19.63;;
19664;SDS011;9980;51.020;7.772;2022-12-18T14:59:52;21.63;;;16.63;;
19664;SDS011;9980;51.020;7.772;2022-12-18T15:02:24;26.10;;;19.70;;
19664;SDS011;9980;51.020;7.772;2022-12-18T15:05:04;25.47;;;18.57;;
19664;SDS011;9980;51.020;7.772;2022-12-18T15:07:47;23.90;;;19.13;;
19664;SDS011;9980;51.020;7.772;2022-12-18T15:10:26;24.63;;;20.13;;
19664;SDS011;9980;51.020;7.772;2022-12-18T15:23:23;27.07;;;18.53;;
19664;SDS011;9980;51.020;7.772;2022-12-18T15:26:02;26.97;;;18.20;;
19664;SDS011;9980;51.020;7.772;2022-12-18T15:33:44;24.40;;;18.33;;
19664;SDS011;9980;51.020;7.772;2022-12-18T15:36:26;27.87;;;19.90;;
19664;SDS011;9980;51.020;7.772;2022-12-18T15:38:53;25.93;;;19.07;;
19664;SDS011;9980;51.020;7.772;2022-12-18T15:41:30;27.67;;;19.57;;
19664;SDS011;9980;51.020;7.772;2022-12-18T15:44:01;25.80;;;19.00;;
19664;SDS011;9980;51.020;7.772;2022-12-18T15:46:28;26.43;;;19.23;;
19664;SDS011;9980;51.020;7.772;2022-12-18T15:48:56;26.93;;;19.47;;
19664;SDS011;9980;51.020;7.772;2022-12-18T15:51:34;26.30;;;20.03;;
19664;SDS011;9980;51.020;7.772;2022-12-18T15:54:03;27.93;;;18.40;;
19664;SDS011;9980;51.020;7.772;2022-12-18T15:56:36;26.73;;;19.03;;
19664;SDS011;9980;51.020;7.772;2022-12-18T15:59:22;26.83;;;19.30;;
19664;SDS011;9980;51.020;7.772;2022-12-18T16:01:49;28.23;;;19.87;;
19664;SDS011;9980;51.020;7.772;2022-12-18T16:04:19;30.37;;;20.97;;
19664;SDS011;9980;51.020;7.772;2022-12-18T16:06:47;29.10;;;20.93;;
19664;SDS011;9980;51.020;7.772;2022-12-18T16:09:34;26.20;;;19.27;;
19664;SDS011;9980;51.020;7.772;2022-12-18T16:12:01;26.10;;;19.33;;
19664;SDS011;9980;51.020;7.772;2022-12-18T16:14:28;28.20;;;20.50;;
19664;SDS011;9980;51.020;7.772;2022-12-18T16:16:56;26.73;;;20.07;;
19664;SDS011;9980;51.020;7.772;2022-12-18T16:19:29;27.73;;;21.13;;
19664;SDS011;9980;51.020;7.772;2022-12-18T16:21:56;29.30;;;19.90;;
19664;SDS011;9980;51.020;7.772;2022-12-18T16:24:24;30.57;;;21.47;;
19664;SDS011;9980;51.020;7.772;2022-12-18T16:26:55;29.13;;;20.60;;
19664;SDS011;9980;51.020;7.772;2022-12-18T16:29:25;31.70;;;21.17;;
19664;SDS011;9980;51.020;7.772;2022-12-18T16:31:54;26.23;;;19.27;;
19664;SDS011;9980;51.020;7.772;2022-12-18T16:34:28;29.53;;;20.50;;
19664;SDS011;9980;51.020;7.772;2022-12-18T16:37:05;29.60;;;20.77;;
19664;SDS011;9980;51.020;7.772;2022-12-18T16:39:33;31.70;;;20.13;;
19664;SDS011;9980;51.020;7.772;2022-12-18T16:42:01;29.87;;;20.73;;
19664;SDS011;9980;51.020;7.772;2022-12-18T16:44:41;29.17;;;20.13;;
19664;SDS011;9980;51.020;7.772;2022-12-18T16:47:09;29.30;;;21.10;;
19664;SDS011;9980;51.020;7.772;2022-12-18T16:49:40;36.50;;;23.87;;
19664;SDS011;9980;51.020;7.772;2022-12-18T16:52:06;32.47;;;22.00;;
19664;SDS011;9980;51.020;7.772;2022-12-18T16:54:32;32.23;;;21.43;;
19664;SDS011;9980;51.020;7.772;2022-12-18T16:57:01;32.20;;;22.20;;
19664;SDS011;9980;51.020;7.772;2022-12-18T16:59:29;33.57;;;21.00;;
19664;SDS011;9980;51.020;7.772;2022-12-18T17:01:57;27.90;;;19.93;;
19664;SDS011;9980;51.020;7.772;2022-12-18T17:04:23;32.27;;;21.07;;
19664;SDS011;9980;51.020;7.772;2022-12-18T17:06:49;32.30;;;22.00;;
19664;SDS011;9980;51.020;7.772;2022-12-18T17:09:18;33.50;;;21.17;;